Terminal Aerodrome Forecast
Issued by NWS

Home | Current Version | Previous Version | Text Only | Print | Product List | Glossary On
Versions: 1 2 3 4 5 6 7 8 9 10 11 12 13 14 15 16
000
FTAK31 PAJN 262324
TAFAWG
TAF
PAWG 262324Z 2700/2724 27010KT P6SM FEW012 BKN035 OVC045
      TEMPO 2700/2704 27015G25KT
     FM270400 30005KT P6SM FEW015 BKN050 BKN070
     FM270900 24006KT 4SM BR SCT007 SCT050
     FM271200 22004KT 2SM BR BKN007
     FM271600 28004KT 4SM BR FEW007 BKN040
     FM272100 31006KT P6SM FEW040 SCT070
      AMD LTD TO CLD VIS AND WIND 2706/2715=

USA.gov is the U.S. government's official web portal to all federal, state and local government web resources and services.